| time (UTC) | temp F | wind direction | speed MPH | gust MPH | rain 1hr in | rain 24hr in | rain mn in | humidity % | barometer mb |
| 20260831115730 | 80 | 216 | 0.0 | 0.0 | 0.00 | 0.02 | 0.00 | 64 | 1011.0 |
| 20260831115230 | 80 | 216 | 0.0 | 0.0 | 0.00 | 0.02 | 0.00 | 63 | 1010.8 |
| 20260831114728 | 80 | 216 | 0.0 | 0.0 | 0.00 | 0.02 | 0.00 | 63 | 1010.7 |
| 20260831114222 | 80 | 216 | 0.0 | 0.0 | 0.00 | 0.02 | 0.00 | 63 | 1010.7 |
| 20260831113720 | 80 | 216 | 0.0 | 0.0 | 0.00 | 0.02 | 0.00 | 63 | 1010.8 |
| 20260831113220 | 80 | 275 | 0.0 | 0.0 | 0.00 | 0.02 | 0.00 | 63 | 1010.8 |
| 20260831112718 | 80 | 281 | 0.0 | 0.0 | 0.00 | 0.02 | 0.00 | 63 | 1010.8 |
| 20260831112215 | 80 | 282 | 0.0 | 0.0 | 0.00 | 0.02 | 0.00 | 63 | 1010.7 |
| 20260831111716 | 80 | 284 | 0.0 | 0.0 | 0.00 | 0.02 | 0.00 | 63 | 1010.3 |
| 20260831111216 | 80 | 284 | 0.0 | 0.0 | 0.00 | 0.02 | 0.00 | 63 | 1010.2 |
| 20260831110714 | 81 | 286 | 0.0 | 0.0 | 0.00 | 0.02 | 0.00 | 63 | 1010.1 |
| 20260831110212 | 81 | 284 | 0.0 | 0.0 | 0.00 | 0.02 | 0.00 | 63 | 1010.0 |
| 20260831105711 | 81 | 284 | 0.0 | 0.0 | 0.00 | 0.02 | 0.00 | 63 | 1009.9 |
| 20260831105211 | 81 | 282 | 0.0 | 0.0 | 0.00 | 0.02 | 0.00 | 63 | 1009.9 |
| 20260831104710 | 80 | 271 | 0.0 | 0.0 | 0.00 | 0.02 | 0.00 | 63 | 1009.8 |
| 20260831104210 | 80 | 298 | 0.0 | 0.0 | 0.00 | 0.02 | 0.00 | 63 | 1009.6 |
| 20260831103711 | 80 | 257 | 0.0 | 0.0 | 0.00 | 0.02 | 0.00 | 63 | 1009.7 |
| 20260831103207 | 80 | 230 | 0.0 | 0.0 | 0.00 | 0.02 | 0.00 | 63 | 1009.7 |
| 20260831102930 | 80 | 230 | 0.0 | 0.0 | 0.00 | 0.02 | 0.00 | 64 | 1009.8 |
| 20260831102208 | 80 | 227 | 0.0 | 0.0 | 0.00 | 0.02 | 0.00 | 64 | 1009.6 |
| 20260831101934 | 80 | 226 | 0.0 | 0.0 | 0.00 | 0.02 | 0.00 | 64 | 1009.7 |
| 20260831101206 | 81 | 227 | 0.0 | 0.0 | 0.00 | 0.02 | 0.00 | 63 | 1009.7 |
| 20260831100706 | 81 | 226 | 0.0 | 0.0 | 0.00 | 0.02 | 0.00 | 63 | 1009.7 |
| 20260831100206 | 81 | 225 | 0.0 | 0.0 | 0.00 | 0.02 | 0.00 | 63 | 1009.8 |
| 20260831095705 | 81 | 225 | 0.0 | 0.0 | 0.00 | 0.02 | 0.00 | 63 | 1009.8 |
| 20260831095205 | 81 | 215 | 0.0 | 0.0 | 0.00 | 0.02 | 0.00 | 63 | 1009.9 |
| 20260831094705 | 81 | 215 | 0.0 | 0.0 | 0.00 | 0.02 | 0.00 | 63 | 1009.9 |
| 20260831094432 | 81 | 211 | 0.0 | 0.0 | 0.00 | 0.02 | 0.00 | 62 | 1009.9 |
| 20260831093925 | 81 | 211 | 0.0 | 0.0 | 0.00 | 0.02 | 0.00 | 61 | 1010.1 |
| 20260831093201 | 82 | 172 | 0.0 | 0.0 | 0.00 | 0.02 | 0.00 | 61 | 1010.0 |
| 20260831092702 | 82 | 175 | 0.0 | 0.0 | 0.00 | 0.02 | 0.00 | 60 | 1010.1 |
| 20260831092202 | 82 | 181 | 0.0 | 0.0 | 0.00 | 0.02 | 0.00 | 58 | 1010.1 |
| 20260831091701 | 82 | 142 | 0.0 | 0.0 | 0.00 | 0.02 | 0.00 | 55 | 1010.0 |
| 20260831091427 | 82 | 142 | 0.0 | 0.0 | 0.00 | 0.02 | 0.00 | 55 | 1009.7 |
| 20260831090701 | 82 | 171 | 0.0 | 0.0 | 0.00 | 0.02 | 0.00 | 55 | 1009.8 |
| 20260831090202 | 82 | 190 | 0.0 | 1.0 | 0.00 | 0.02 | 0.00 | 56 | 1009.8 |
| 20260831085701 | 83 | 169 | 0.0 | 7.0 | 0.00 | 0.02 | 0.00 | 56 | 1009.9 |
| 20260831085201 | 83 | 148 | 4.0 | 18.0 | 0.00 | 0.02 | 0.00 | 55 | 1009.8 |
| 20260831084701 | 83 | 75 | 8.0 | 18.0 | 0.00 | 0.02 | 0.00 | 55 | 1009.5 |
| 20260831084202 | 83 | 35 | 7.0 | 16.0 | 0.00 | 0.02 | 0.00 | 55 | 1009.3 |
| 20260831083701 | 83 | 54 | 5.0 | 15.0 | 0.00 | 0.02 | 0.00 | 56 | 1009.3 |
| 20260831083202 | 83 | 47 | 5.0 | 18.0 | 0.00 | 0.02 | 0.00 | 55 | 1009.4 |
| 20260831082702 | 82 | 44 | 4.0 | 20.0 | 0.00 | 0.02 | 0.00 | 55 | 1009.5 |
| 20260831082201 | 82 | 40 | 3.0 | 20.0 | 0.00 | 0.02 | 0.00 | 56 | 1009.5 |
| 20260831081702 | 82 | 46 | 3.0 | 16.0 | 0.00 | 0.02 | 0.00 | 55 | 1009.6 |
| 20260831081432 | 82 | 40 | 3.0 | 17.0 | 0.00 | 0.02 | 0.00 | 54 | 1009.8 |
| 20260831080701 | 82 | 355 | 2.0 | 17.0 | 0.00 | 0.02 | 0.00 | 57 | 1009.9 |
| 20260831080427 | 81 | 355 | 1.0 | 9.0 | 0.00 | 0.02 | 0.00 | 60 | 1009.7 |
| 20260831075923 | 80 | 348 | 1.0 | 13.0 | 0.00 | 0.02 | 0.00 | 62 | 1009.7 |
| 20260831075201 | 80 | 10 | 3.0 | 13.0 | 0.00 | 0.02 | 0.00 | 64 | 1009.8 |
| 20260831074701 | 80 | 340 | 6.0 | 23.0 | 0.00 | 0.02 | 0.00 | 65 | 1010.1 |
| 20260831074200 | 80 | 338 | 7.0 | 23.0 | 0.00 | 0.02 | 0.00 | 65 | 1010.1 |
| 20260831073701 | 80 | 327 | 7.0 | 19.0 | 0.00 | 0.02 | 0.00 | 65 | 1010.1 |
| 20260831073201 | 80 | 330 | 8.0 | 20.0 | 0.00 | 0.02 | 0.00 | 66 | 1010.2 |
| 20260831072701 | 80 | 355 | 8.0 | 20.0 | 0.00 | 0.02 | 0.00 | 68 | 1010.3 |
| 20260831072154 | 80 | 342 | 7.0 | 22.0 | 0.01 | 0.02 | 0.00 | 68 | 1010.3 |
| 20260831071918 | 80 | 340 | 6.0 | 22.0 | 0.01 | 0.02 | 0.00 | 69 | 1010.4 |
| 20260831071149 | 80 | 349 | 4.0 | 14.0 | 0.01 | 0.02 | 0.00 | 71 | 1010.6 |
| 20260831070649 | 80 | 347 | 8.0 | 22.0 | 0.01 | 0.02 | 0.00 | 71 | 1010.6 |
| 20260831040211 | 99 | 222 | 0.0 | 0.0 | 0.00 | 0.00 | 0.00 | 31 | 1007.6 |
| 20260831035712 | 99 | 234 | 0.0 | 0.0 | 0.00 | 0.00 | 0.00 | 31 | 1007.5 |
| 20260831035436 | 99 | 234 | 0.0 | 0.0 | 0.00 | 0.00 | 0.00 | 31 | 1007.5 |
| 20260831034936 | 99 | 234 | 0.0 | 0.0 | 0.00 | 0.00 | 0.00 | 30 | 1007.6 |
| 20260831034211 | 99 | 227 | 0.0 | 0.0 | 0.00 | 0.00 | 0.00 | 30 | 1007.5 |
| 20260831033709 | 99 | 244 | 0.0 | 0.0 | 0.00 | 0.00 | 0.00 | 31 | 1007.4 |
| 20260831033209 | 99 | 246 | 0.0 | 0.0 | 0.00 | 0.00 | 0.00 | 31 | 1007.3 |
| 20260831032710 | 99 | 246 | 0.0 | 0.0 | 0.00 | 0.00 | 0.00 | 31 | 1007.4 |
| 20260831032210 | 100 | 246 | 0.0 | 0.0 | 0.00 | 0.00 | 0.00 | 31 | 1007.4 |
| 20260831031708 | 100 | 247 | 0.0 | 0.0 | 0.00 | 0.00 | 0.00 | 31 | 1007.4 |
| 20260831031208 | 100 | 248 | 0.0 | 0.0 | 0.00 | 0.00 | 0.00 | 31 | 1007.3 |
| 20260831030929 | 100 | 248 | 0.0 | 0.0 | 0.00 | 0.00 | 0.00 | 31 | 1007.3 |
| 20260831030202 | 100 | 247 | 0.0 | 0.0 | 0.00 | 0.00 | 0.00 | 31 | 1007.3 |
| 20260831025701 | 100 | 225 | 0.0 | 0.0 | 0.00 | 0.00 | 0.00 | 31 | 1007.2 |
| 20260831025201 | 100 | 237 | 0.0 | 0.0 | 0.00 | 0.00 | 0.00 | 31 | 1007.1 |
| 20260831024701 | 100 | 224 | 0.0 | 0.0 | 0.00 | 0.00 | 0.00 | 31 | 1007.1 |
| 20260831024202 | 100 | 259 | 0.0 | 0.0 | 0.00 | 0.00 | 0.00 | 31 | 1006.9 |
| 20260831023701 | 100 | 247 | 0.0 | 0.0 | 0.00 | 0.00 | 0.00 | 31 | 1006.9 |
| 20260831023202 | 100 | 219 | 0.0 | 0.0 | 0.00 | 0.00 | 0.00 | 31 | 1006.8 |
| 20260831022700 | 100 | 247 | 0.0 | 0.0 | 0.00 | 0.00 | 0.00 | 30 | 1006.7 |
| 20260831022201 | 100 | 243 | 0.0 | 0.0 | 0.00 | 0.00 | 0.00 | 31 | 1006.8 |
| 20260831021702 | 100 | 227 | 0.0 | 0.0 | 0.00 | 0.00 | 0.00 | 30 | 1006.7 |
| 20260831021202 | 101 | 251 | 0.0 | 0.0 | 0.00 | 0.00 | 0.00 | 30 | 1006.7 |
| 20260831020701 | 101 | 224 | 0.0 | 0.0 | 0.00 | 0.00 | 0.00 | 30 | 1006.5 |
| 20260831020201 | 101 | 236 | 0.0 | 0.0 | 0.00 | 0.00 | 0.00 | 30 | 1006.4 |
| 20260831015701 | 101 | 252 | 0.0 | 0.0 | 0.00 | 0.00 | 0.00 | 30 | 1006.3 |
| 20260831015201 | 101 | 212 | 0.0 | 1.0 | 0.00 | 0.00 | 0.00 | 30 | 1006.2 |
| 20260831014701 | 101 | 232 | 0.0 | 1.0 | 0.00 | 0.00 | 0.00 | 30 | 1006.1 |
| 20260831014201 | 102 | 231 | 0.0 | 0.0 | 0.00 | 0.00 | 0.00 | 29 | 1006.1 |
| 20260831013701 | 102 | 220 | 0.0 | 3.0 | 0.00 | 0.00 | 0.00 | 29 | 1006.1 |
| 20260831013201 | 102 | 217 | 0.0 | 3.0 | 0.00 | 0.00 | 0.00 | 29 | 1006.1 |
| 20260831012702 | 102 | 211 | 0.0 | 0.0 | 0.00 | 0.00 | 0.00 | 29 | 1006.1 |
| 20260831012202 | 102 | 244 | 0.0 | 5.0 | 0.00 | 0.00 | 0.00 | 29 | 1006.1 |
| 20260831011702 | 103 | 196 | 0.0 | 5.0 | 0.00 | 0.00 | 0.00 | 28 | 1006.0 |
| 20260831011201 | 103 | 250 | 0.0 | 0.0 | 0.00 | 0.00 | 0.00 | 28 | 1006.2 |
| 20260831010702 | 103 | 261 | 0.0 | 0.0 | 0.00 | 0.00 | 0.00 | 28 | 1006.2 |
| 20260831010426 | 103 | 215 | 0.0 | 0.0 | 0.00 | 0.00 | 0.00 | 28 | 1006.2 |
| 20260831005920 | 103 | 288 | 0.0 | 0.0 | 0.00 | 0.00 | 0.00 | 28 | 1006.2 |
| 20260831005654 | 103 | 274 | 0.0 | 1.0 | 0.00 | 0.00 | 0.00 | 28 | 1006.2 |
| 20260831004701 | 104 | 255 | 0.0 | 3.0 | 0.00 | 0.00 | 0.00 | 28 | 1006.2 |
| 20260831004201 | 104 | 233 | 0.0 | 3.0 | 0.00 | 0.00 | 0.00 | 28 | 1006.3 |
| 20260831003701 | 104 | 269 | 0.0 | 0.0 | 0.00 | 0.00 | 0.00 | 28 | 1006.2 |
| 20260831003201 | 104 | 276 | 0.0 | 1.0 | 0.00 | 0.00 | 0.00 | 28 | 1006.2 |
| 20260831002700 | 104 | 271 | 0.0 | 1.0 | 0.00 | 0.00 | 0.00 | 28 | 1006.2 |
| 20260831002201 | 104 | 273 | 0.0 | 1.0 | 0.00 | 0.00 | 0.00 | 28 | 1006.3 |
| 20260831001701 | 104 | 254 | 0.0 | 1.0 | 0.00 | 0.00 | 0.00 | 28 | 1006.3 |
| 20260831001202 | 104 | 195 | 0.0 | 1.0 | 0.00 | 0.00 | 0.00 | 28 | 1006.4 |
| 20260831000701 | 104 | 207 | 0.0 | 1.0 | 0.00 | 0.00 | 0.00 | 28 | 1006.4 |
| 20260831000201 | 104 | 222 | 0.0 | 1.0 | 0.00 | 0.00 | 0.00 | 28 | 1006.4 |
| 20260830235701 | 104 | 216 | 0.0 | 1.0 | 0.00 | 0.00 | 0.00 | 27 | 1006.5 |
| 20260830235647 | 105 | 265 | 0.0 | 3.0 | 0.00 | 0.00 | 0.00 | 27 | 1006.5 |
| 20260830235144 | 105 | 265 | 0.0 | 3.0 | 0.00 | 0.00 | 0.00 | 27 | 1006.5 |
| 20260830234202 | 105 | 215 | 0.0 | 1.0 | 0.00 | 0.00 | 0.00 | 27 | 1006.5 |
| 20260830233701 | 105 | 231 | 0.0 | 1.0 | 0.00 | 0.00 | 0.00 | 28 | 1006.5 |
| 20260830233200 | 105 | 142 | 0.0 | 0.0 | 0.00 | 0.00 | 0.00 | 27 | 1006.6 |
| 20260830232701 | 105 | 144 | 0.0 | 0.0 | 0.00 | 0.00 | 0.00 | 27 | 1006.7 |
| 20260830232201 | 105 | 161 | 0.0 | 0.0 | 0.00 | 0.00 | 0.00 | 27 | 1006.7 |
| 20260830231702 | 105 | 201 | 0.0 | 0.0 | 0.00 | 0.00 | 0.00 | 27 | 1006.7 |
| 20260830231428 | 105 | 281 | 0.0 | 10.0 | 0.00 | 0.00 | 0.00 | 27 | 1006.8 |
| 20260830230701 | 105 | 194 | 0.0 | 10.0 | 0.00 | 0.00 | 0.00 | 27 | 1006.9 |
| 20260830230202 | 105 | 236 | 0.0 | 0.0 | 0.00 | 0.00 | 0.00 | 27 | 1006.9 |
| 20260830225921 | 104 | 5 | 0.0 | 0.0 | 0.00 | 0.00 | 0.00 | 28 | 1007.0 |
| 20260830225159 | 105 | 313 | 0.0 | 1.0 | 0.00 | 0.00 | 0.00 | 28 | 1007.1 |
| 20260830224913 | 105 | 258 | 0.0 | 1.0 | 0.00 | 0.00 | 0.00 | 28 | 1007.2 |
| 20260830224147 | 104 | 248 | 0.0 | 0.0 | 0.00 | 0.00 | 0.00 | 28 | 1007.2 |
| 20260830223640 | 105 | 278 | 0.0 | 0.0 | 0.00 | 0.00 | 0.00 | 27 | 1007.4 |
| 20260830223138 | 105 | 205 | 0.0 | 2.0 | 0.00 | 0.00 | 0.00 | 27 | 1007.4 |
| 20260830222639 | 105 | 246 | 0.0 | 2.0 | 0.00 | 0.00 | 0.00 | 27 | 1007.4 |
| 20260830222137 | 105 | 225 | 0.0 | 1.0 | 0.00 | 0.00 | 0.00 | 27 | 1007.5 |
| 20260830221903 | 104 | 284 | 0.0 | 1.0 | 0.00 | 0.00 | 0.00 | 27 | 1007.7 |
| 20260830221137 | 105 | 303 | 0.0 | 3.0 | 0.00 | 0.00 | 0.00 | 27 | 1007.7 |
| 20260830220638 | 104 | 335 | 0.0 | 3.0 | 0.00 | 0.00 | 0.00 | 27 | 1007.8 |
| 20260830220137 | 104 | 322 | 0.0 | 0.0 | 0.00 | 0.00 | 0.00 | 27 | 1008.1 |
| 20260830215635 | 104 | 269 | 0.0 | 0.0 | 0.00 | 0.00 | 0.00 | 27 | 1008.2 |
| 20260830215133 | 104 | 96 | 0.0 | 1.0 | 0.00 | 0.00 | 0.00 | 27 | 1008.3 |
| 20260830214631 | 105 | 158 | 0.0 | 1.0 | 0.00 | 0.00 | 0.00 | 27 | 1008.5 |
| 20260830214131 | 104 | 188 | 0.0 | 1.0 | 0.00 | 0.00 | 0.00 | 27 | 1008.6 |
| 20260830213851 | 104 | 261 | 0.0 | 0.0 | 0.00 | 0.00 | 0.00 | 28 | 1008.7 |
| 20260830213129 | 103 | 126 | 0.0 | 0.0 | 0.00 | 0.00 | 0.00 | 28 | 1008.8 |
| 20260830212630 | 103 | 114 | 0.0 | 0.0 | 0.00 | 0.00 | 0.00 | 28 | 1008.9 |
| 20260830212128 | 103 | 276 | 0.0 | 1.0 | 0.00 | 0.00 | 0.00 | 29 | 1008.9 |
| 20260830211629 | 103 | 267 | 0.0 | 1.0 | 0.00 | 0.00 | 0.00 | 28 | 1009.0 |
| 20260830211129 | 103 | 237 | 0.0 | 0.0 | 0.00 | 0.00 | 0.00 | 28 | 1009.1 |
| 20260830210631 | 103 | 321 | 0.0 | 1.0 | 0.00 | 0.00 | 0.00 | 29 | 1009.1 |
| 20260830210128 | 103 | 252 | 0.0 | 1.0 | 0.00 | 0.00 | 0.00 | 29 | 1009.3 |
| 20260830205622 | 103 | 250 | 0.0 | 1.0 | 0.00 | 0.00 | 0.00 | 29 | 1009.4 |
| 20260830205123 | 103 | 204 | 0.0 | 2.0 | 0.00 | 0.00 | 0.00 | 29 | 1009.5 |
| 20260830204621 | 103 | 159 | 0.0 | 3.0 | 0.00 | 0.00 | 0.00 | 29 | 1009.7 |
| 20260830204121 | 103 | 180 | 0.0 | 3.0 | 0.00 | 0.00 | 0.00 | 29 | 1009.7 |
| 20260830203620 | 102 | 147 | 0.0 | 2.0 | 0.00 | 0.00 | 0.00 | 30 | 1009.8 |
| 20260830203122 | 102 | 107 | 0.0 | 2.0 | 0.00 | 0.00 | 0.00 | 29 | 1009.9 |
| 20260830202837 | 103 | 194 | 0.0 | 0.0 | 0.00 | 0.00 | 0.00 | 29 | 1010.1 |
| 20260830202117 | 103 | 288 | 0.0 | 2.0 | 0.00 | 0.00 | 0.00 | 29 | 1010.1 |
| 20260830201614 | 103 | 211 | 0.0 | 2.0 | 0.00 | 0.00 | 0.00 | 29 | 1010.2 |
| 20260830201112 | 103 | 148 | 0.0 | 3.0 | 0.00 | 0.00 | 0.00 | 29 | 1010.3 |
| 20260830200611 | 103 | 188 | 0.0 | 3.0 | 0.00 | 0.00 | 0.00 | 29 | 1010.4 |
| 20260830200111 | 103 | 204 | 0.0 | 4.0 | 0.00 | 0.00 | 0.00 | 29 | 1010.4 |
| 20260830195611 | 103 | 139 | 0.0 | 4.0 | 0.00 | 0.00 | 0.00 | 30 | 1010.4 |
| 20260830195340 | 102 | 150 | 0.0 | 0.0 | 0.00 | 0.00 | 0.00 | 30 | 1010.6 |
| 20260830194611 | 102 | 208 | 0.0 | 0.0 | 0.00 | 0.00 | 0.00 | 30 | 1010.7 |
| 20260830194108 | 101 | 314 | 0.0 | 0.0 | 0.00 | 0.00 | 0.00 | 31 | 1010.7 |
| 20260830193608 | 101 | 277 | 0.0 | 3.0 | 0.00 | 0.00 | 0.00 | 30 | 1010.8 |
| 20260830193107 | 101 | 248 | 0.0 | 3.0 | 0.00 | 0.00 | 0.00 | 30 | 1010.9 |
| 20260830192607 | 101 | 235 | 0.0 | 2.0 | 0.00 | 0.00 | 0.00 | 31 | 1010.9 |
| 20260830192106 | 101 | 219 | 0.0 | 2.0 | 0.00 | 0.00 | 0.00 | 31 | 1011.0 |
| 20260830191607 | 101 | 270 | 0.0 | 1.0 | 0.00 | 0.00 | 0.00 | 32 | 1011.0 |
| 20260830191104 | 101 | 248 | 0.0 | 1.0 | 0.00 | 0.00 | 0.00 | 31 | 1011.1 |
| 20260830190825 | 101 | 150 | 0.0 | 0.0 | 0.00 | 0.00 | 0.00 | 32 | 1011.2 |
| 20260830190105 | 101 | 161 | 0.0 | 5.0 | 0.00 | 0.00 | 0.00 | 32 | 1011.3 |
| 20260830185605 | 100 | 111 | 0.0 | 5.0 | 0.00 | 0.00 | 0.00 | 32 | 1011.3 |
| 20260830185105 | 100 | 198 | 0.0 | 1.0 | 0.00 | 0.00 | 0.00 | 32 | 1011.5 |
| 20260830184606 | 100 | 86 | 0.0 | 1.0 | 0.00 | 0.00 | 0.00 | 32 | 1011.5 |
| 20260830184105 | 100 | 229 | 0.0 | 1.0 | 0.00 | 0.00 | 0.00 | 32 | 1011.6 |
| 20260830183604 | 100 | 202 | 0.0 | 1.0 | 0.00 | 0.00 | 0.00 | 32 | 1011.6 |
| 20260830183105 | 99 | 216 | 0.0 | 0.0 | 0.00 | 0.00 | 0.00 | 33 | 1011.8 |
| 20260830182605 | 99 | 200 | 0.0 | 1.0 | 0.00 | 0.00 | 0.00 | 33 | 1011.9 |
| 20260830182106 | 98 | 125 | 0.0 | 5.0 | 0.00 | 0.00 | 0.00 | 34 | 1011.9 |
| 20260830181605 | 98 | 132 | 0.0 | 5.0 | 0.00 | 0.00 | 0.00 | 34 | 1012.0 |
| 20260830181104 | 97 | 163 | 0.0 | 2.0 | 0.00 | 0.00 | 0.00 | 34 | 1012.0 |
| 20260830180604 | 97 | 113 | 0.0 | 1.0 | 0.00 | 0.00 | 0.00 | 34 | 1012.1 |
| 20260830180324 | 98 | 122 | 0.0 | 1.0 | 0.00 | 0.00 | 0.00 | 34 | 1012.2 |
| 20260830175829 | 97 | 193 | 0.0 | 1.0 | 0.00 | 0.00 | 0.00 | 35 | 1012.2 |
| 20260830175103 | 97 | 237 | 0.0 | 3.0 | 0.00 | 0.00 | 0.00 | 35 | 1012.3 |
| 20260830174602 | 96 | 205 | 0.0 | 5.0 | 0.00 | 0.00 | 0.00 | 35 | 1012.3 |
| 20260830174103 | 96 | 148 | 0.0 | 7.0 | 0.00 | 0.00 | 0.00 | 36 | 1012.4 |
| 20260830173602 | 96 | 132 | 0.0 | 7.0 | 0.00 | 0.00 | 0.00 | 36 | 1012.4 |
| 20260830173103 | 96 | 141 | 0.0 | 5.0 | 0.00 | 0.00 | 0.00 | 36 | 1012.5 |
| 20260830172601 | 95 | 178 | 0.0 | 5.0 | 0.00 | 0.00 | 0.00 | 36 | 1012.4 |
| 20260830172102 | 95 | 126 | 0.0 | 7.0 | 0.00 | 0.00 | 0.00 | 37 | 1012.4 |
| 20260830171601 | 95 | 126 | 0.0 | 7.0 | 0.00 | 0.00 | 0.00 | 37 | 1012.4 |
| 20260830171326 | 95 | 112 | 0.0 | 6.0 | 0.00 | 0.00 | 0.00 | 37 | 1012.5 |
| 20260830170602 | 94 | 107 | 1.0 | 11.0 | 0.00 | 0.00 | 0.00 | 38 | 1012.4 |
| 20260830165602 | 94 | 113 | 1.0 | 9.0 | 0.00 | 0.00 | 0.00 | 38 | 1012.5 |
| 20260830165102 | 94 | 109 | 1.0 | 6.0 | 0.00 | 0.00 | 0.00 | 38 | 1012.4 |
| 20260830164602 | 94 | 155 | 1.0 | 7.0 | 0.00 | 0.00 | 0.00 | 38 | 1012.4 |
| 20260830164102 | 93 | 147 | 1.0 | 9.0 | 0.00 | 0.00 | 0.00 | 39 | 1012.3 |
| 20260830163602 | 93 | 143 | 1.0 | 9.0 | 0.00 | 0.00 | 0.00 | 39 | 1012.4 |
| 20260830163102 | 93 | 143 | 1.0 | 11.0 | 0.00 | 0.00 | 0.00 | 39 | 1012.4 |
| 20260830162602 | 93 | 104 | 1.0 | 11.0 | 0.00 | 0.00 | 0.00 | 39 | 1012.4 |
| 20260830162102 | 93 | 184 | 1.0 | 10.0 | 0.00 | 0.00 | 0.00 | 39 | 1012.4 |
| 20260830161601 | 92 | 159 | 0.0 | 10.0 | 0.00 | 0.00 | 0.00 | 39 | 1012.3 |
| 20260830161103 | 92 | 132 | 1.0 | 13.0 | 0.00 | 0.00 | 0.00 | 39 | 1012.3 |
| 20260830160602 | 92 | 145 | 1.0 | 13.0 | 0.00 | 0.00 | 0.00 | 40 | 1012.3 |
| 20260830155601 | 91 | 149 | 2.0 | 11.0 | 0.00 | 0.00 | 0.00 | 41 | 1012.3 |
| 20260830155102 | 90 | 122 | 2.0 | 11.0 | 0.00 | 0.00 | 0.00 | 41 | 1012.2 |
| 20260830154602 | 90 | 126 | 3.0 | 12.0 | 0.00 | 0.00 | 0.00 | 41 | 1012.2 |
| 20260830154101 | 90 | 155 | 4.0 | 13.0 | 0.00 | 0.00 | 0.00 | 41 | 1012.3 |
| 20260830153601 | 90 | 142 | 3.0 | 13.0 | 0.00 | 0.00 | 0.00 | 41 | 1012.3 |
| 20260830153100 | 90 | 158 | 2.0 | 11.0 | 0.00 | 0.00 | 0.00 | 41 | 1012.2 |
| 20260830152601 | 90 | 115 | 2.0 | 10.0 | 0.00 | 0.00 | 0.00 | 41 | 1012.3 |
| 20260830152101 | 90 | 148 | 1.0 | 10.0 | 0.00 | 0.00 | 0.00 | 41 | 1012.2 |
| 20260830151559 | 90 | 162 | 1.0 | 12.0 | 0.00 | 0.00 | 0.00 | 41 | 1012.1 |
| 20260830151548 | 90 | 128 | 0.0 | 12.0 | 0.00 | 0.00 | 0.00 | 41 | 1012.2 |
| 20260830150547 | 89 | 325 | 0.0 | 11.0 | 0.00 | 0.00 | 0.00 | 42 | 1012.2 |
| 20260830150042 | 89 | 181 | 0.0 | 5.0 | 0.00 | 0.00 | 0.00 | 43 | 1012.3 |
| 20260830145535 | 89 | 323 | 1.0 | 12.0 | 0.00 | 0.00 | 0.00 | 44 | 1012.2 |
| 20260830145035 | 88 | 307 | 3.0 | 18.0 | 0.00 | 0.00 | 0.00 | 44 | 1012.2 |
| 20260830144534 | 88 | 51 | 3.0 | 23.0 | 0.00 | 0.00 | 0.00 | 44 | 1012.2 |
| 20260830144033 | 88 | 34 | 2.0 | 23.0 | 0.00 | 0.00 | 0.00 | 44 | 1012.2 |
| 20260830143534 | 88 | 52 | 1.0 | 11.0 | 0.00 | 0.00 | 0.00 | 43 | 1012.3 |
| 20260830143034 | 89 | 0 | 1.0 | 9.0 | 0.00 | 0.00 | 0.00 | 43 | 1012.3 |
| 20260830142535 | 89 | 103 | 0.0 | 8.0 | 0.00 | 0.00 | 0.00 | 42 | 1012.2 |
| 20260830142032 | 89 | 289 | 0.0 | 9.0 | 0.00 | 0.00 | 0.00 | 42 | 1012.1 |
| 20260830141530 | 88 | 331 | 0.0 | 10.0 | 0.00 | 0.00 | 0.00 | 42 | 1012.1 |
| 20260830141030 | 88 | 24 | 0.0 | 10.0 | 0.00 | 0.00 | 0.00 | 42 | 1012.0 |
| 20260830140754 | 88 | 311 | 2.0 | 19.0 | 0.00 | 0.00 | 0.00 | 43 | 1012.0 |
| 20260830140029 | 88 | 26 | 3.0 | 19.0 | 0.00 | 0.00 | 0.00 | 44 | 1011.9 |
| 20260830135531 | 87 | 0 | 2.0 | 15.0 | 0.00 | 0.00 | 0.00 | 44 | 1011.9 |
| 20260830135030 | 88 | 240 | 1.0 | 15.0 | 0.00 | 0.00 | 0.00 | 44 | 1011.9 |
| 20260830134530 | 87 | 351 | 1.0 | 14.0 | 0.00 | 0.00 | 0.00 | 43 | 1011.7 |
| 20260830134030 | 87 | 242 | 2.0 | 14.0 | 0.00 | 0.00 | 0.00 | 44 | 1011.7 |
| 20260830133531 | 87 | 184 | 0.0 | 13.0 | 0.00 | 0.00 | 0.00 | 43 | 1011.7 |
| 20260830133030 | 87 | 150 | 0.0 | 11.0 | 0.00 | 0.00 | 0.00 | 43 | 1011.6 |
| 20260830132530 | 87 | 18 | 0.0 | 2.0 | 0.00 | 0.00 | 0.00 | 44 | 1011.6 |
| 20260830132029 | 87 | 0 | 0.0 | 6.0 | 0.00 | 0.00 | 0.00 | 44 | 1011.5 |
| 20260830131529 | 87 | 48 | 0.0 | 6.0 | 0.00 | 0.00 | 0.00 | 45 | 1011.4 |
| 20260830131029 | 87 | 103 | 1.0 | 12.0 | 0.00 | 0.00 | 0.00 | 45 | 1011.3 |
| 20260830130528 | 87 | 58 | 1.0 | 12.0 | 0.00 | 0.00 | 0.00 | 45 | 1011.3 |
| 20260830130029 | 87 | 55 | 0.0 | 6.0 | 0.00 | 0.00 | 0.00 | 46 | 1011.2 |
| 20260830125528 | 87 | 0 | 0.0 | 5.0 | 0.00 | 0.00 | 0.00 | 46 | 1011.2 |
| 20260830125030 | 87 | 53 | 0.0 | 3.0 | 0.00 | 0.00 | 0.00 | 47 | 1011.1 |
| 20260830124529 | 87 | 10 | 0.0 | 0.0 | 0.00 | 0.00 | 0.00 | 48 | 1011.0 |
| 20260830124029 | 87 | 42 | 0.0 | 0.0 | 0.00 | 0.00 | 0.00 | 47 | 1011.0 |
| 20260830123529 | 87 | 19 | 0.0 | 0.0 | 0.00 | 0.00 | 0.00 | 47 | 1011.0 |
| 20260830123029 | 87 | 19 | 0.0 | 0.0 | 0.00 | 0.00 | 0.00 | 47 | 1010.8 |
| 20260830122528 | 87 | 39 | 0.0 | 0.0 | 0.00 | 0.00 | 0.00 | 46 | 1010.7 |
| 20260830122028 | 87 | 55 | 0.0 | 1.0 | 0.00 | 0.00 | 0.00 | 46 | 1010.6 |
| 20260830121527 | 87 | 41 | 0.0 | 2.0 | 0.00 | 0.00 | 0.00 | 46 | 1010.6 |
| 20260830121026 | 88 | 315 | 0.0 | 2.0 | 0.00 | 0.00 | 0.00 | 46 | 1010.6 |
| 20260830120526 | 87 | 327 | 0.0 | 0.0 | 0.00 | 0.00 | 0.00 | 46 | 1010.6 |
| 20260830120019 | 87 | 355 | 0.0 | 0.0 | 0.00 | 0.00 | 0.00 | 45 | 1010.6 |